createdAt,value
2023-09-29T00:02:54.246Z,100855.53
2023-09-29T00:05:56.637Z,100851.47
2023-09-29T00:08:59.481Z,100848.75
2023-09-29T00:12:01.701Z,100850.38
2023-09-29T00:15:07.647Z,100853.09
2023-09-29T00:18:09.962Z,100850.91
2023-09-29T00:21:12.483Z,100851.75
2023-09-29T00:24:14.678Z,100857.97
2023-09-29T00:27:29.702Z,100853.09
2023-09-29T00:30:31.917Z,100847.66
2023-09-29T00:33:34.647Z,100844.94
2023-09-29T00:36:37.004Z,100855.25
2023-09-29T00:39:39.210Z,100843.88
2023-09-29T00:42:42.979Z,100855.00
2023-09-29T00:45:46.309Z,100847.66
2023-09-29T00:48:50.460Z,100842.25
2023-09-29T00:51:53.268Z,100849.28
2023-09-29T00:54:55.969Z,100851.97
2023-09-29T00:57:59.780Z,100847.69
2023-09-29T01:01:02.799Z,100846.84
2023-09-29T01:04:05.953Z,100849.00
2023-09-29T01:07:08.963Z,100835.72
2023-09-29T01:10:20.263Z,100844.94
2023-09-29T01:13:23.722Z,100841.72
2023-09-29T01:16:26.134Z,100844.66
2023-09-29T01:19:28.363Z,100843.59
2023-09-29T01:22:31.435Z,100841.44
2023-09-29T01:25:34.271Z,100843.34
2023-09-29T01:28:36.535Z,100843.31
2023-09-29T01:31:40.156Z,100825.19
2023-09-29T01:34:42.356Z,100843.31
2023-09-29T01:37:47.937Z,100823.81
2023-09-29T01:40:50.135Z,100843.84
2023-09-29T01:43:53.565Z,100844.94
2023-09-29T01:46:57.120Z,100844.69
2023-09-29T01:50:00.529Z,100828.69
2023-09-29T01:53:03.338Z,100834.63
2023-09-29T01:56:05.653Z,100834.38
2023-09-29T01:59:07.908Z,100842.25
2023-09-29T02:02:10.186Z,100842.78
2023-09-29T02:05:13.137Z,100840.31
2023-09-29T02:08:15.876Z,100843.88
2023-09-29T02:11:18.785Z,100844.94
2023-09-29T02:14:21.677Z,100840.88
2023-09-29T02:17:24.180Z,100842.25
2023-09-29T02:20:34.853Z,100836.25
2023-09-29T02:23:39.397Z,100831.94
2023-09-29T02:26:42.785Z,100832.22
2023-09-29T02:29:45.107Z,100821.09
2023-09-29T02:32:47.629Z,100826.50
2023-09-29T02:35:51.623Z,100835.16
2023-09-29T02:38:54.237Z,100843.84
2023-09-29T02:41:57.646Z,100842.22
2023-09-29T02:44:59.913Z,100832.75
2023-09-29T02:48:03.599Z,100839.50
2023-09-29T02:51:15.359Z,100839.25
2023-09-29T02:54:17.536Z,100830.28
2023-09-29T02:57:22.137Z,100838.97
2023-09-29T03:00:28.020Z,100838.44
2023-09-29T03:03:30.530Z,100834.09
2023-09-29T03:06:33.419Z,100835.16
2023-09-29T03:09:35.624Z,100837.88
2023-09-29T03:12:37.788Z,100834.66
2023-09-29T03:15:42.777Z,100829.22
2023-09-29T03:18:45.069Z,100812.41
2023-09-29T03:21:47.359Z,100811.84
2023-09-29T03:24:49.593Z,100827.03
2023-09-29T03:27:51.845Z,100816.69
2023-09-29T03:30:54.165Z,100823.72
2023-09-29T03:33:56.432Z,100830.78
2023-09-29T03:36:58.679Z,100835.94
2023-09-29T03:40:00.881Z,100836.72
2023-09-29T03:43:03.052Z,100845.13
2023-09-29T03:46:05.738Z,100829.38
2023-09-29T03:49:08.500Z,100839.16
2023-09-29T03:52:10.729Z,100817.44
2023-09-29T03:55:14.246Z,100831.81
2023-09-29T03:58:16.567Z,100848.06
2023-09-29T04:01:18.994Z,100837.19
2023-09-29T04:04:21.321Z,100834.25
2023-09-29T04:07:23.557Z,100833.97
2023-09-29T04:10:25.903Z,100857.84
2023-09-29T04:13:28.163Z,100851.88
2023-09-29T04:16:33.514Z,100840.72
2023-09-29T04:19:36.584Z,100851.03
2023-09-29T04:22:39.092Z,100839.66
2023-09-29T04:25:41.292Z,100841.53
2023-09-29T04:28:43.536Z,100848.56
2023-09-29T04:31:45.737Z,100845.03
2023-09-29T04:34:47.921Z,100843.97
2023-09-29T04:37:51.304Z,100855.38
2023-09-29T04:40:53.560Z,100862.38
2023-09-29T04:43:55.781Z,100863.47
2023-09-29T04:46:58.039Z,100846.09
2023-09-29T04:50:00.237Z,100866.75
2023-09-29T04:53:02.489Z,100863.22
2023-09-29T04:56:04.760Z,100870.81
2023-09-29T04:59:07.683Z,100875.41
2023-09-29T05:02:09.963Z,100851.00
2023-09-29T05:05:12.195Z,100874.59
2023-09-29T05:08:16.037Z,100880.03
2023-09-29T05:11:22.479Z,100879.84
2023-09-29T05:14:25.897Z,100870.09
2023-09-29T05:17:44.423Z,100886.13
2023-09-29T05:20:51.747Z,100878.22
2023-09-29T05:23:54.578Z,100870.38
2023-09-29T05:26:57.132Z,100884.75
2023-09-29T05:30:00.076Z,100890.16
2023-09-29T05:33:02.363Z,100888.53
2023-09-29T05:36:05.090Z,100871.47
2023-09-29T05:39:07.332Z,100886.13
2023-09-29T05:42:13.806Z,100882.88
2023-09-29T05:45:16.157Z,100886.97
2023-09-29T05:48:18.656Z,100883.44
2023-09-29T05:51:21.082Z,100881.25
2023-09-29T05:54:23.764Z,100878.28
2023-09-29T05:57:26.360Z,100894.00
2023-09-29T06:00:29.804Z,100881.84
2023-09-29T06:03:32.235Z,100897.53
2023-09-29T06:06:35.377Z,100899.16
2023-09-29T06:09:37.831Z,100903.75
2023-09-29T06:12:41.922Z,100909.72
2023-09-29T06:15:46.601Z,100892.13
2023-09-29T06:22:16.053Z,100900.81
2023-09-29T06:25:18.484Z,100907.03
2023-09-29T06:28:21.252Z,100905.69
2023-09-29T06:31:25.212Z,100895.13
2023-09-29T06:34:27.470Z,100901.88
2023-09-29T06:37:30.185Z,100897.53
2023-09-29T06:40:32.458Z,100917.66
2023-09-29T06:43:35.142Z,100900.28
2023-09-29T06:46:38.936Z,100898.13
2023-09-29T06:49:43.711Z,100917.63
2023-09-29T06:52:46.285Z,100918.19
2023-09-29T06:55:52.687Z,100923.59
2023-09-29T06:58:56.844Z,100930.09
2023-09-29T07:01:59.527Z,100934.16
2023-09-29T07:05:04.637Z,100936.88
2023-09-29T07:08:09.487Z,100930.59
2023-09-29T07:11:23.536Z,100929.75
2023-09-29T07:14:32.288Z,100922.94
2023-09-29T07:17:36.560Z,100928.94
2023-09-29T07:20:39.223Z,100937.09
2023-09-29T07:23:42.104Z,100927.31
2023-09-29T07:26:44.477Z,100936.81
2023-09-29T07:29:50.986Z,100938.97
2023-09-29T07:32:54.444Z,100952.72
2023-09-29T07:35:58.314Z,100949.13
2023-09-29T07:39:09.162Z,100936.38
2023-09-29T07:42:12.384Z,100942.91
2023-09-29T07:45:14.971Z,100942.31
2023-09-29T07:48:25.203Z,100948.25
2023-09-29T07:51:31.072Z,100947.66
2023-09-29T07:54:35.933Z,100946.84
2023-09-29T07:57:45.010Z,100954.41
2023-09-29T08:00:55.935Z,100941.09
2023-09-29T08:04:04.901Z,100947.00
2023-09-29T08:07:26.048Z,100948.03
2023-09-29T08:10:28.489Z,100958.59
2023-09-29T08:13:31.069Z,100951.50
2023-09-29T08:16:34.089Z,100944.66
2023-09-29T08:19:37.013Z,100946.25
2023-09-29T08:22:41.614Z,100941.31
2023-09-29T08:25:45.491Z,100937.53
2023-09-29T08:28:50.138Z,100937.97
2023-09-29T08:31:55.350Z,100943.06
2023-09-29T08:35:01.149Z,100933.00
2023-09-29T08:38:04.077Z,100936.47
2023-09-29T08:41:09.847Z,100932.66
2023-09-29T08:44:16.098Z,100937.50
2023-09-29T08:47:20.177Z,100932.94
2023-09-29T08:50:36.799Z,100927.91
2023-09-29T08:53:44.920Z,100931.44
2023-09-29T08:57:19.145Z,100937.94
2023-09-29T09:00:22.492Z,100936.78
2023-09-29T09:03:38.931Z,100909.66
2023-09-29T09:06:42.418Z,100913.19
2023-09-29T09:10:02.837Z,100927.25
2023-09-29T09:13:09.384Z,100936.34
2023-09-29T09:16:13.026Z,100943.34
2023-09-29T09:19:16.374Z,100925.22
2023-09-29T09:22:38.952Z,100928.69
2023-09-29T09:25:45.730Z,100940.50
2023-09-29T09:28:47.957Z,100936.34
2023-09-29T09:31:56.528Z,100936.81
2023-09-29T09:34:59.537Z,100928.06
2023-09-29T09:38:02.708Z,100930.44
2023-09-29T09:41:06.579Z,100933.41
2023-09-29T09:44:09.008Z,100920.84
2023-09-29T09:47:15.473Z,100928.69
2023-09-29T09:50:17.875Z,100918.31
2023-09-29T09:53:22.164Z,100927.44
2023-09-29T09:56:25.791Z,100920.91
2023-09-29T09:59:29.263Z,100899.13
2023-09-29T10:02:34.634Z,100908.88
2023-09-29T10:05:41.327Z,100925.09
2023-09-29T10:08:45.757Z,100922.88
2023-09-29T10:12:00.788Z,100906.53
2023-09-29T10:15:07.185Z,100901.84
2023-09-29T10:18:20.918Z,100900.16
2023-09-29T10:21:26.990Z,100904.13
2023-09-29T10:24:30.119Z,100897.00
2023-09-29T10:27:41.249Z,100898.63
2023-09-29T10:30:43.462Z,100900.22
2023-09-29T10:33:46.077Z,100901.22
2023-09-29T10:36:56.003Z,100888.69
2023-09-29T10:39:59.245Z,100899.22
2023-09-29T10:43:03.866Z,100886.88
2023-09-29T10:46:09.936Z,100874.38
2023-09-29T10:49:32.340Z,100883.78
2023-09-29T10:52:56.299Z,100855.25
2023-09-29T10:56:10.311Z,100834.84
2023-09-29T10:59:12.954Z,100858.53
2023-09-29T11:02:15.490Z,100866.56
2023-09-29T11:05:18.308Z,100851.88
2023-09-29T11:08:26.272Z,100857.44
2023-09-29T11:11:37.587Z,100849.25
2023-09-29T11:14:41.205Z,100854.22
2023-09-29T11:17:51.506Z,100841.41
2023-09-29T11:20:54.401Z,100850.50
2023-09-29T11:24:06.240Z,100840.09
2023-09-29T11:27:08.635Z,100826.03
2023-09-29T11:30:12.073Z,100831.22
2023-09-29T11:33:16.257Z,100832.84
2023-09-29T11:36:24.376Z,100824.25
2023-09-29T11:39:26.646Z,100810.50
2023-09-29T11:42:29.384Z,100812.81
2023-09-29T11:45:31.737Z,100824.22
2023-09-29T11:48:34.047Z,100808.47
2023-09-29T11:51:36.419Z,100818.88
2023-09-29T11:54:39.349Z,100820.06
2023-09-29T11:57:41.982Z,100809.84
2023-09-29T12:00:44.307Z,100802.13
2023-09-29T12:03:46.881Z,100802.75
2023-09-29T12:06:49.244Z,100799.38
2023-09-29T12:09:51.664Z,100801.41
2023-09-29T12:12:53.824Z,100798.22
2023-09-29T12:15:56.213Z,100793.56
2023-09-29T12:18:58.509Z,100793.56
2023-09-29T12:22:00.754Z,100782.53
2023-09-29T12:25:02.938Z,100776.34
2023-09-29T12:28:05.545Z,100768.66
2023-09-29T12:31:16.020Z,100776.13
2023-09-29T12:34:19.101Z,100773.97
2023-09-29T12:37:21.347Z,100751.41
2023-09-29T12:40:23.652Z,100763.88
2023-09-29T12:43:25.797Z,100763.44
2023-09-29T12:46:27.989Z,100744.91
2023-09-29T12:49:30.429Z,100758.00
2023-09-29T12:52:32.850Z,100754.84
2023-09-29T12:55:35.166Z,100756.66
2023-09-29T12:58:37.331Z,100742.44
2023-09-29T13:01:39.810Z,100750.41
2023-09-29T13:04:43.127Z,100752.03
2023-09-29T13:07:50.520Z,100733.66
2023-09-29T13:10:52.777Z,100734.22
2023-09-29T13:13:55.741Z,100735.72
2023-09-29T13:16:59.059Z,100723.47
2023-09-29T13:20:01.287Z,100732.69
2023-09-29T13:23:03.526Z,100729.13
2023-09-29T13:26:06.550Z,100725.94
2023-09-29T13:29:09.783Z,100721.25
2023-09-29T13:32:12.952Z,100729.50
2023-09-29T13:35:15.201Z,100731.97
2023-09-29T13:38:18.851Z,100722.28
2023-09-29T13:41:21.809Z,100722.78
2023-09-29T13:44:23.961Z,100725.41
2023-09-29T13:47:26.308Z,100722.81
2023-09-29T13:50:30.341Z,100710.72
2023-09-29T13:53:32.535Z,100724.91
2023-09-29T13:56:35.052Z,100722.97
2023-09-29T13:59:37.505Z,100709.13
2023-09-29T14:02:39.751Z,100714.59
2023-09-29T14:05:42.745Z,100707.34
2023-09-29T14:08:45.529Z,100705.72
2023-09-29T14:11:47.873Z,100706.38
2023-09-29T14:14:50.173Z,100695.25
2023-09-29T14:17:52.561Z,100711.22
2023-09-29T14:20:54.808Z,100698.81
2023-09-29T14:23:57.274Z,100699.13
2023-09-29T14:26:59.968Z,100682.22
2023-09-29T14:30:04.832Z,100685.75
2023-09-29T14:33:07.258Z,100700.59
2023-09-29T14:36:09.615Z,100680.91
2023-09-29T14:39:12.202Z,100676.06
2023-09-29T14:42:14.609Z,100684.78
2023-09-29T14:45:16.978Z,100670.91
2023-09-29T14:48:20.791Z,100662.22
2023-09-29T14:51:23.437Z,100660.75
2023-09-29T14:54:26.151Z,100660.75
2023-09-29T14:57:28.395Z,100669.94
2023-09-29T15:00:30.656Z,100664.78
2023-09-29T15:03:33.321Z,100663.97
2023-09-29T15:06:35.765Z,100658.34
2023-09-29T15:09:38.190Z,100661.56
2023-09-29T15:12:40.382Z,100648.03
2023-09-29T15:15:42.992Z,100653.34
2023-09-29T15:18:50.676Z,100664.97
2023-09-29T15:21:53.071Z,100659.28
2023-09-29T15:24:55.426Z,100664.63
2023-09-29T15:27:57.709Z,100646.88
2023-09-29T15:31:00.957Z,100655.59
2023-09-29T15:34:03.681Z,100662.50
2023-09-29T15:37:06.498Z,100662.84
2023-09-29T15:40:12.318Z,100669.94
2023-09-29T15:43:14.520Z,100664.56
2023-09-29T15:46:17.850Z,100644.88
2023-09-29T15:49:20.375Z,100663.88
2023-09-29T15:52:23.232Z,100657.09
2023-09-29T15:55:25.367Z,100658.22
2023-09-29T15:58:27.578Z,100658.03
2023-09-29T16:01:30.219Z,100656.41
2023-09-29T16:04:32.685Z,100666.53
2023-09-29T16:07:35.008Z,100662.47
2023-09-29T16:10:37.177Z,100663.03
2023-09-29T16:13:39.501Z,100654.28
2023-09-29T16:16:46.036Z,100671.88
2023-09-29T16:19:48.701Z,100669.09
2023-09-29T16:22:51.996Z,100663.59
2023-09-29T16:25:54.232Z,100679.06
2023-09-29T16:28:56.537Z,100672.56
2023-09-29T16:31:59.331Z,100666.53
2023-09-29T16:35:02.237Z,100681.03
2023-09-29T16:38:05.161Z,100683.41
2023-09-29T16:41:07.401Z,100692.25
2023-09-29T16:44:10.850Z,100684.03
2023-09-29T16:47:13.285Z,100676.84
2023-09-29T16:50:16.564Z,100692.09
2023-09-29T16:53:19.045Z,100687.38
2023-09-29T16:56:26.316Z,100690.91
2023-09-29T16:59:28.481Z,100688.31
2023-09-29T17:02:30.796Z,100695.59
2023-09-29T17:05:34.882Z,100684.88
2023-09-29T17:08:37.701Z,100678.22
2023-09-29T17:11:45.210Z,100687.28
2023-09-29T17:14:47.454Z,100696.28
2023-09-29T17:17:49.688Z,100694.59
2023-09-29T17:20:53.245Z,100704.72
2023-09-29T17:23:56.086Z,100690.47
2023-09-29T17:26:58.610Z,100693.09
2023-09-29T17:30:01.058Z,100698.91
2023-09-29T17:33:03.466Z,100694.75
2023-09-29T17:36:07.072Z,100697.34
2023-09-29T17:39:09.318Z,100695.91
2023-09-29T17:42:12.590Z,100706.03
2023-09-29T17:45:15.087Z,100712.16
2023-09-29T17:48:34.406Z,100704.50
2023-09-29T17:51:39.990Z,100715.16
2023-09-29T17:54:42.228Z,100705.00
2023-09-29T17:57:44.438Z,100708.03
2023-09-29T18:00:46.617Z,100711.41
2023-09-29T18:03:49.068Z,100723.34
2023-09-29T18:06:57.349Z,100707.66
2023-09-29T18:09:59.889Z,100703.44
2023-09-29T18:13:02.487Z,100708.59
2023-09-29T18:16:06.822Z,100719.44
2023-09-29T18:19:09.077Z,100708.75
2023-09-29T18:22:11.287Z,100724.16
2023-09-29T18:25:13.550Z,100716.41
2023-09-29T18:28:15.926Z,100730.59
2023-09-29T18:31:18.174Z,100723.09
2023-09-29T18:34:20.415Z,100707.72
2023-09-29T18:37:24.390Z,100725.28
2023-09-29T18:40:28.103Z,100715.63
2023-09-29T18:43:30.329Z,100712.94
2023-09-29T18:46:32.533Z,100715.66
2023-09-29T18:49:34.829Z,100727.88
2023-09-29T18:52:37.021Z,100737.72
2023-09-29T18:55:42.085Z,100736.38
2023-09-29T18:58:44.370Z,100731.31
2023-09-29T19:01:46.827Z,100734.09
2023-09-29T19:04:50.777Z,100738.16
2023-09-29T19:07:53.033Z,100730.91
2023-09-29T19:10:56.277Z,100739.66
2023-09-29T19:13:58.590Z,100718.56
2023-09-29T19:17:03.427Z,100731.06
2023-09-29T19:20:06.458Z,100734.06
2023-09-29T19:23:08.661Z,100729.19
2023-09-29T19:26:14.931Z,100736.28
2023-09-29T19:29:17.090Z,100722.28
2023-09-29T19:32:19.304Z,100736.09
2023-09-29T19:35:21.487Z,100719.59
2023-09-29T19:38:23.678Z,100732.66
2023-09-29T19:41:28.563Z,100730.47
2023-09-29T19:44:30.911Z,100737.75
2023-09-29T19:47:33.135Z,100729.97
2023-09-29T19:50:35.302Z,100738.66
2023-09-29T19:53:38.052Z,100737.63
2023-09-29T19:56:40.305Z,100736.59
2023-09-29T19:59:42.558Z,100743.66
2023-09-29T20:02:45.004Z,100742.31
2023-09-29T20:05:48.731Z,100755.66
2023-09-29T20:08:51.656Z,100753.78
2023-09-29T20:11:54.311Z,100745.66
2023-09-29T20:14:56.658Z,100753.25
2023-09-29T20:17:58.917Z,100739.50
2023-09-29T20:21:02.903Z,100742.25
2023-09-29T20:24:14.461Z,100752.53
2023-09-29T20:27:17.367Z,100729.25
2023-09-29T20:30:20.904Z,100750.41
2023-09-29T20:33:23.411Z,100740.69
2023-09-29T20:36:29.158Z,100754.53
2023-09-29T20:39:33.033Z,100749.09
2023-09-29T20:42:35.747Z,100751.28
2023-09-29T20:45:38.043Z,100735.31
2023-09-29T20:48:40.529Z,100752.91
2023-09-29T20:51:42.767Z,100754.28
2023-09-29T20:54:45.493Z,100761.63
2023-09-29T20:57:47.704Z,100765.16
2023-09-29T21:00:49.904Z,100768.41
2023-09-29T21:03:52.245Z,100767.34
2023-09-29T21:06:54.574Z,100763.56
2023-09-29T21:09:57.019Z,100744.31
2023-09-29T21:12:59.239Z,100757.59
2023-09-29T21:16:01.770Z,100767.38
2023-09-29T21:19:05.374Z,100770.34
2023-09-29T21:22:07.868Z,100765.47
2023-09-29T21:25:11.893Z,100767.38
2023-09-29T21:28:14.268Z,100771.72
2023-09-29T21:31:16.787Z,100770.09
2023-09-29T21:34:19.638Z,100757.91
2023-09-29T21:37:21.788Z,100767.13
2023-09-29T21:40:23.940Z,100752.19
2023-09-29T21:43:26.110Z,100764.44
2023-09-29T21:46:28.370Z,100763.34
2023-09-29T21:49:30.868Z,100769.28
2023-09-29T21:52:33.115Z,100760.63
2023-09-29T21:55:36.999Z,100758.44
2023-09-29T21:58:39.255Z,100759.03
2023-09-29T22:01:42.183Z,100755.25
2023-09-29T22:04:44.518Z,100753.63
2023-09-29T22:07:47.292Z,100750.88
2023-09-29T22:10:50.628Z,100748.47
2023-09-29T22:13:53.040Z,100743.59
2023-09-29T22:16:55.228Z,100750.91
2023-09-29T22:19:57.536Z,100743.34
2023-09-29T22:23:00.098Z,100747.94
2023-09-29T22:26:02.318Z,100752.53
2023-09-29T22:29:04.726Z,100750.09
2023-09-29T22:32:06.981Z,100737.63
2023-09-29T22:35:09.908Z,100754.97
2023-09-29T22:38:12.088Z,100751.72
2023-09-29T22:41:16.308Z,100750.09
2023-09-29T22:44:18.640Z,100747.91
2023-09-29T22:47:20.894Z,100737.34
2023-09-29T22:50:23.248Z,100754.97
2023-09-29T22:53:28.548Z,100754.97
2023-09-29T22:56:30.885Z,100760.13
2023-09-29T22:59:33.536Z,100761.47
2023-09-29T23:02:36.267Z,100760.66
2023-09-29T23:05:38.614Z,100755.50
2023-09-29T23:08:40.888Z,100752.22
2023-09-29T23:11:43.189Z,100753.84
2023-09-29T23:14:46.221Z,100757.91
2023-09-29T23:17:48.503Z,100757.09
2023-09-29T23:20:52.049Z,100741.13
2023-09-29T23:23:54.877Z,100763.88
2023-09-29T23:26:57.101Z,100763.06
2023-09-29T23:29:59.351Z,100762.78
2023-09-29T23:33:01.641Z,100759.25
2023-09-29T23:36:07.717Z,100748.13
2023-09-29T23:39:12.500Z,100755.69
2023-09-29T23:42:15.093Z,100755.47
2023-09-29T23:45:17.421Z,100771.13
2023-09-29T23:48:19.760Z,100755.94
2023-09-29T23:51:22.041Z,100758.66
2023-09-29T23:54:26.412Z,100759.75
2023-09-29T23:57:28.643Z,100751.59
